createdAt,value
2023-12-04T00:01:50.531Z,-4.16
2023-12-04T00:04:52.219Z,-4.19
2023-12-04T00:07:53.883Z,-4.24
2023-12-04T00:10:55.597Z,-4.25
2023-12-04T00:13:57.175Z,-4.45
2023-12-04T00:16:58.775Z,-4.43
2023-12-04T00:20:00.358Z,-4.56
2023-12-04T00:23:02.131Z,-4.56
2023-12-04T00:26:03.926Z,-4.67
2023-12-04T00:29:05.643Z,-4.78
2023-12-04T00:32:07.886Z,-4.90
2023-12-04T00:35:09.555Z,-5.15
2023-12-04T00:38:11.190Z,-5.21
2023-12-04T00:41:12.798Z,-5.32
2023-12-04T00:44:14.378Z,-5.38
2023-12-04T00:47:15.964Z,-5.47
2023-12-04T00:50:17.628Z,-5.49
2023-12-04T00:53:19.265Z,-5.64
2023-12-04T00:56:21.729Z,-5.50
2023-12-04T00:59:23.370Z,-5.34
2023-12-04T01:02:25.028Z,-5.05
2023-12-04T01:05:26.755Z,-5.11
2023-12-04T01:08:28.357Z,-4.95
2023-12-04T01:11:29.946Z,-5.03
2023-12-04T01:14:32.127Z,-4.94
2023-12-04T01:17:33.706Z,-4.92
2023-12-04T01:20:35.630Z,-4.87
2023-12-04T01:23:37.439Z,-4.86
2023-12-04T01:26:39.299Z,-4.88
2023-12-04T01:29:40.843Z,-4.89
2023-12-04T01:32:42.521Z,-4.98
2023-12-04T01:35:44.264Z,-5.06
2023-12-04T01:38:45.879Z,-5.24
2023-12-04T01:41:47.559Z,-5.40
2023-12-04T01:44:49.245Z,-5.47
2023-12-04T01:47:51.153Z,-5.52
2023-12-04T01:50:53.961Z,-5.45
2023-12-04T01:54:00.406Z,-5.33
2023-12-04T01:57:04.283Z,-5.32
2023-12-04T02:00:12.645Z,-5.10
2023-12-04T02:03:15.195Z,-5.08
2023-12-04T02:06:18.460Z,-4.99
2023-12-04T02:09:20.403Z,-4.90
2023-12-04T02:12:22.305Z,-5.11
2023-12-04T02:15:23.931Z,-5.20
2023-12-04T02:18:26.203Z,-5.49
2023-12-04T02:21:27.792Z,-5.63
2023-12-04T02:24:30.223Z,-5.74
2023-12-04T02:27:43.925Z,-5.84
2023-12-04T02:30:48.536Z,-6.05
2023-12-04T02:33:54.027Z,-5.66
2023-12-04T02:36:56.658Z,-5.56
2023-12-04T02:39:59.437Z,-5.79
2023-12-04T02:43:01.125Z,-5.96
2023-12-04T02:46:02.950Z,-6.00
2023-12-04T02:49:04.674Z,-5.87
2023-12-04T02:52:06.686Z,-5.66
2023-12-04T02:55:08.974Z,-5.48
2023-12-04T02:58:10.666Z,-5.42
2023-12-04T03:01:12.266Z,-5.40
2023-12-04T03:04:14.437Z,-5.30
2023-12-04T03:07:16.144Z,-5.33
2023-12-04T03:10:17.984Z,-5.29
2023-12-04T03:13:19.629Z,-5.27
2023-12-04T03:16:21.285Z,-5.25
2023-12-04T03:19:23.002Z,-5.32
2023-12-04T03:22:24.668Z,-5.50
2023-12-04T03:25:26.887Z,-5.56
2023-12-04T03:28:28.468Z,-5.69
2023-12-04T03:31:30.623Z,-5.87
2023-12-04T03:34:32.286Z,-5.96
2023-12-04T03:37:33.930Z,-5.94
2023-12-04T03:40:35.600Z,-5.95
2023-12-04T03:43:37.212Z,-6.11
2023-12-04T03:46:38.784Z,-6.05
2023-12-04T03:49:40.392Z,-6.11
2023-12-04T03:52:42.849Z,-6.21
2023-12-04T03:55:44.674Z,-6.34
2023-12-04T03:58:46.313Z,-6.39
2023-12-04T04:01:47.954Z,-6.38
2023-12-04T04:04:49.601Z,-6.57
2023-12-04T04:07:51.231Z,-6.49
2023-12-04T04:10:52.880Z,-6.50
2023-12-04T04:13:54.448Z,-6.56
2023-12-04T04:16:56.026Z,-6.59
2023-12-04T04:19:57.666Z,-6.55
2023-12-04T04:22:59.249Z,-6.50
2023-12-04T04:26:00.945Z,-6.50
2023-12-04T04:29:02.531Z,-6.42
2023-12-04T04:32:04.574Z,-6.03
2023-12-04T04:35:06.474Z,-5.80
2023-12-04T04:38:08.020Z,-5.72
2023-12-04T04:41:15.296Z,-5.94
2023-12-04T04:44:16.932Z,-6.06
2023-12-04T04:47:18.498Z,-6.08
2023-12-04T04:50:20.244Z,-5.86
2023-12-04T04:53:22.113Z,-5.76
2023-12-04T04:56:23.701Z,-5.86
2023-12-04T04:59:25.402Z,-5.89
2023-12-04T05:02:27.638Z,-6.13
2023-12-04T05:05:29.550Z,-6.13
2023-12-04T05:08:31.990Z,-6.15
2023-12-04T05:11:33.649Z,-6.05
2023-12-04T05:14:35.295Z,-6.18
2023-12-04T05:17:36.914Z,-6.30
2023-12-04T05:20:38.589Z,-6.34
2023-12-04T05:23:40.864Z,-6.36
2023-12-04T05:26:42.463Z,-6.37
2023-12-04T05:29:44.214Z,-6.41
2023-12-04T05:32:45.968Z,-6.54
2023-12-04T05:35:49.245Z,-6.66
2023-12-04T05:38:50.826Z,-6.66
2023-12-04T05:41:52.414Z,-6.70
2023-12-04T05:44:56.531Z,-6.74
2023-12-04T05:47:58.288Z,-6.72
2023-12-04T05:50:59.984Z,-6.73
2023-12-04T05:54:01.566Z,-6.80
2023-12-04T05:57:03.273Z,-6.80
2023-12-04T06:00:06.737Z,-6.83
2023-12-04T06:03:08.401Z,-6.77
2023-12-04T06:06:10.061Z,-6.76
2023-12-04T06:09:11.919Z,-6.78
2023-12-04T06:12:13.685Z,-6.93
2023-12-04T06:15:15.390Z,-6.77
2023-12-04T06:18:17.045Z,-6.79
2023-12-04T06:21:18.715Z,-6.79
2023-12-04T06:24:20.780Z,-6.76
2023-12-04T06:27:22.906Z,-6.77
2023-12-04T06:30:24.930Z,-6.74
2023-12-04T06:33:27.365Z,-6.71
2023-12-04T06:36:36.433Z,-6.72
2023-12-04T06:39:39.868Z,-6.68
2023-12-04T06:42:41.974Z,-6.61
2023-12-04T06:45:44.017Z,-6.59
2023-12-04T06:48:45.796Z,-6.54
2023-12-04T06:51:47.457Z,-6.46
2023-12-04T06:54:49.187Z,-6.39
2023-12-04T06:57:50.896Z,-6.31
2023-12-04T07:00:54.345Z,-6.20
2023-12-04T07:03:55.986Z,-6.03
2023-12-04T07:06:59.369Z,-5.85
2023-12-04T07:10:01.104Z,-5.63
2023-12-04T07:13:02.802Z,-5.37
2023-12-04T07:16:04.930Z,-5.13
2023-12-04T07:19:06.731Z,-4.93
2023-12-04T07:22:08.402Z,-4.76
2023-12-04T07:25:10.250Z,-4.64
2023-12-04T07:28:11.869Z,-4.35
2023-12-04T07:31:13.580Z,-4.22
2023-12-04T07:34:15.376Z,-3.99
2023-12-04T07:37:17.139Z,-3.80
2023-12-04T07:40:18.946Z,-3.66
2023-12-04T07:43:20.717Z,-3.47
2023-12-04T07:46:22.467Z,-3.26
2023-12-04T07:49:24.167Z,-3.03
2023-12-04T07:52:25.788Z,-2.97
2023-12-04T07:55:27.881Z,-2.84
2023-12-04T07:58:29.516Z,-2.70
2023-12-04T08:01:31.541Z,-2.65
2023-12-04T08:04:33.784Z,-2.57
2023-12-04T08:07:35.429Z,-2.59
2023-12-04T08:10:37.371Z,-2.33
2023-12-04T08:13:41.921Z,-2.15
2023-12-04T08:16:43.515Z,-1.79
2023-12-04T08:19:46.014Z,-1.50
2023-12-04T08:22:48.210Z,-1.48
2023-12-04T08:25:49.789Z,-1.57
2023-12-04T08:28:54.161Z,-1.71
2023-12-04T08:31:55.893Z,-1.75
2023-12-04T08:34:57.434Z,-1.73
2023-12-04T08:38:05.348Z,-1.74
2023-12-04T08:41:07.560Z,-1.78
2023-12-04T08:44:09.171Z,-1.77
2023-12-04T08:47:11.059Z,-1.64
2023-12-04T08:50:12.677Z,-1.54
2023-12-04T08:53:14.377Z,-1.19
2023-12-04T08:56:19.641Z,-0.99
2023-12-04T08:59:26.891Z,-1.20
2023-12-04T09:02:28.647Z,-0.68
2023-12-04T09:05:30.581Z,-0.26
2023-12-04T09:08:37.809Z,-0.12
2023-12-04T09:11:44.653Z,0.14
2023-12-04T09:14:46.704Z,0.29
2023-12-04T09:17:48.335Z,0.27
2023-12-04T09:20:50.024Z,0.64
2023-12-04T09:23:51.697Z,0.90
2023-12-04T09:26:53.203Z,0.79
2023-12-04T09:29:54.913Z,1.16
2023-12-04T09:32:56.446Z,1.06
2023-12-04T09:35:58.323Z,0.98
2023-12-04T09:38:59.851Z,0.53
2023-12-04T09:42:02.692Z,0.88
2023-12-04T09:45:04.766Z,0.93
2023-12-04T09:48:07.827Z,1.04
2023-12-04T09:51:11.168Z,0.87
2023-12-04T09:54:13.416Z,1.04
2023-12-04T09:57:15.531Z,1.13
2023-12-04T10:00:18.969Z,1.44
2023-12-04T10:03:20.683Z,1.41
2023-12-04T10:06:24.979Z,1.36
2023-12-04T10:09:26.627Z,1.55
2023-12-04T10:12:29.010Z,1.12
2023-12-04T10:15:30.836Z,0.93
2023-12-04T10:18:33.096Z,1.21
2023-12-04T10:21:35.204Z,1.04
2023-12-04T10:24:40.649Z,0.97
2023-12-04T10:27:42.596Z,1.16
2023-12-04T10:30:44.752Z,1.29
2023-12-04T10:33:50.838Z,1.58
2023-12-04T10:36:53.179Z,1.76
2023-12-04T10:39:54.998Z,1.45
2023-12-04T10:43:11.176Z,2.03
2023-12-04T10:46:13.734Z,2.47
2023-12-04T10:49:15.724Z,2.42
2023-12-04T10:52:20.844Z,2.11
2023-12-04T10:55:22.668Z,3.14
2023-12-04T10:58:27.712Z,4.22
2023-12-04T11:01:30.954Z,4.34
2023-12-04T11:04:35.895Z,3.92
2023-12-04T11:08:12.608Z,4.18
2023-12-04T11:11:05.525Z,5.18
2023-12-04T11:14:11.718Z,4.77
2023-12-04T11:17:15.819Z,5.01
2023-12-04T11:20:21.127Z,4.16
2023-12-04T11:23:23.733Z,4.29
2023-12-04T11:26:27.277Z,4.78
2023-12-04T11:29:30.472Z,3.54
2023-12-04T11:32:32.104Z,3.85
2023-12-04T11:35:35.358Z,3.71
2023-12-04T11:38:38.059Z,5.19
2023-12-04T11:41:42.248Z,5.97
2023-12-04T11:44:43.900Z,4.60
2023-12-04T11:47:58.997Z,4.77
2023-12-04T11:51:01.667Z,5.16
2023-12-04T11:54:06.151Z,4.67
2023-12-04T11:57:10.709Z,3.61
2023-12-04T12:00:19.797Z,4.47
2023-12-04T12:03:23.736Z,4.28
2023-12-04T12:06:26.208Z,4.09
2023-12-04T12:09:29.463Z,4.19
2023-12-04T12:12:33.391Z,4.82
2023-12-04T12:15:35.524Z,4.38
2023-12-04T12:18:37.570Z,5.15
2023-12-04T12:21:39.757Z,4.89
2023-12-04T12:24:41.419Z,4.47
2023-12-04T12:27:44.102Z,5.21
2023-12-04T12:30:46.814Z,5.26
2023-12-04T12:33:48.667Z,4.46
2023-12-04T12:36:50.873Z,3.52
2023-12-04T12:39:53.128Z,3.82
2023-12-04T12:43:06.758Z,3.54
2023-12-04T12:46:09.422Z,4.04
2023-12-04T12:49:18.415Z,3.28
2023-12-04T12:52:25.019Z,2.80
2023-12-04T12:55:28.242Z,2.06
2023-12-04T12:58:30.207Z,2.66
2023-12-04T13:01:32.909Z,2.91
2023-12-04T13:04:39.019Z,2.51
2023-12-04T13:07:42.411Z,2.27
2023-12-04T13:10:44.358Z,2.38
2023-12-04T13:13:46.165Z,2.11
2023-12-04T13:16:47.878Z,2.16
2023-12-04T13:19:49.544Z,1.87
2023-12-04T13:22:51.263Z,1.80
2023-12-04T13:25:52.775Z,1.68
2023-12-04T13:28:54.489Z,1.82
2023-12-04T13:31:56.069Z,1.56
2023-12-04T13:34:57.678Z,1.31
2023-12-04T13:38:00.471Z,1.17
2023-12-04T13:41:09.939Z,0.97
2023-12-04T13:44:15.428Z,0.84
2023-12-04T13:47:17.187Z,0.91
2023-12-04T13:50:18.907Z,1.02
2023-12-04T13:53:26.822Z,0.71
2023-12-04T13:56:45.661Z,0.64
2023-12-04T13:59:47.501Z,0.48
2023-12-04T14:02:49.326Z,0.43
2023-12-04T14:05:51.398Z,0.43
2023-12-04T14:08:53.380Z,0.35
2023-12-04T14:11:55.198Z,0.32
2023-12-04T14:14:59.852Z,0.27
2023-12-04T14:18:01.588Z,0.23
2023-12-04T14:21:03.526Z,0.15
2023-12-04T14:24:05.463Z,0.11
2023-12-04T14:27:10.256Z,0.02
2023-12-04T14:30:12.698Z,0.03
2023-12-04T14:33:14.343Z,-0.03
2023-12-04T14:36:16.038Z,-0.06
2023-12-04T14:39:19.971Z,-0.10
2023-12-04T14:42:21.717Z,-0.23
2023-12-04T14:45:23.474Z,-0.20
2023-12-04T14:48:25.043Z,-0.22
2023-12-04T14:51:27.678Z,-0.27
2023-12-04T14:54:49.192Z,-0.31
2023-12-04T14:58:02.947Z,-0.39
2023-12-04T15:01:24.932Z,-0.45
2023-12-04T15:05:04.668Z,-0.51
2023-12-04T15:08:42.142Z,-0.57
2023-12-04T15:11:43.793Z,-0.63
2023-12-04T15:14:55.442Z,-0.66
2023-12-04T15:18:17.114Z,-0.79
2023-12-04T15:21:18.836Z,-0.87
2023-12-04T15:24:20.549Z,-1.02
2023-12-04T15:27:22.208Z,-1.06
2023-12-04T15:30:23.826Z,-1.04
2023-12-04T15:33:27.440Z,-1.09
2023-12-04T15:36:29.076Z,-1.15
2023-12-04T15:39:30.731Z,-1.12
2023-12-04T15:42:32.803Z,-1.12
2023-12-04T15:45:34.673Z,-1.19
2023-12-04T15:48:36.292Z,-1.14
2023-12-04T15:51:38.472Z,-1.24
2023-12-04T15:54:40.231Z,-1.25
2023-12-04T15:57:41.782Z,-1.20
2023-12-04T16:00:45.084Z,-1.21
2023-12-04T16:03:46.799Z,-1.32
2023-12-04T16:06:49.989Z,-1.27
2023-12-04T16:09:51.759Z,-1.23
2023-12-04T16:12:53.368Z,-1.20
2023-12-04T16:15:55.107Z,-1.13
2023-12-04T16:18:56.878Z,-1.19
2023-12-04T16:21:58.397Z,-1.08
2023-12-04T16:25:00.007Z,-1.10
2023-12-04T16:28:02.055Z,-1.12
2023-12-04T16:31:06.573Z,-1.12
2023-12-04T16:34:08.383Z,-1.18
2023-12-04T16:37:10.084Z,-1.18
2023-12-04T16:40:12.239Z,-1.21
2023-12-04T16:43:13.942Z,-1.26
2023-12-04T16:46:15.590Z,-1.35
2023-12-04T16:49:17.578Z,-1.29
2023-12-04T16:52:19.355Z,-1.40
2023-12-04T16:55:20.979Z,-1.31
2023-12-04T16:58:22.650Z,-1.33
2023-12-04T17:01:24.508Z,-1.37
2023-12-04T17:04:26.188Z,-1.41
2023-12-04T17:07:27.945Z,-1.49
2023-12-04T17:10:30.103Z,-1.52
2023-12-04T17:13:31.863Z,-1.50
2023-12-04T17:16:33.698Z,-1.50
2023-12-04T17:19:36.776Z,-1.49
2023-12-04T17:22:38.524Z,-1.55
2023-12-04T17:25:41.585Z,-1.49
2023-12-04T17:28:43.229Z,-1.55
2023-12-04T17:31:45.366Z,-1.55
2023-12-04T17:34:47.830Z,-1.49
2023-12-04T17:37:49.570Z,-1.47
2023-12-04T17:40:51.188Z,-1.54
2023-12-04T17:43:53.045Z,-1.48
2023-12-04T17:46:56.155Z,-1.52
2023-12-04T17:49:58.502Z,-1.52
2023-12-04T17:53:00.789Z,-1.55
2023-12-04T17:56:02.476Z,-1.57
2023-12-04T17:59:04.579Z,-1.60
2023-12-04T18:02:10.440Z,-1.61
2023-12-04T18:05:15.723Z,-1.59
2023-12-04T18:08:17.467Z,-1.59
2023-12-04T18:11:19.657Z,-1.61
2023-12-04T18:14:21.489Z,-1.63
2023-12-04T18:17:23.045Z,-1.68
2023-12-04T18:20:24.690Z,-1.71
2023-12-04T18:23:26.346Z,-1.65
2023-12-04T18:26:28.454Z,-1.68
2023-12-04T18:29:30.638Z,-1.80
2023-12-04T18:32:33.117Z,-1.84
2023-12-04T18:35:34.966Z,-1.85
2023-12-04T18:38:41.536Z,-1.76
2023-12-04T18:41:43.698Z,-1.83
2023-12-04T18:44:45.561Z,-1.79
2023-12-04T18:47:52.369Z,-1.75
2023-12-04T18:50:54.327Z,-1.82
2023-12-04T18:53:56.375Z,-1.87
2023-12-04T18:56:59.708Z,-1.88
2023-12-04T19:00:01.470Z,-1.86
2023-12-04T19:03:03.197Z,-1.87
2023-12-04T19:06:05.243Z,-1.91
2023-12-04T19:09:08.162Z,-1.87
2023-12-04T19:12:09.997Z,-1.87
2023-12-04T19:15:12.058Z,-1.87
2023-12-04T19:18:13.816Z,-1.88
2023-12-04T19:21:15.618Z,-1.91
2023-12-04T19:24:17.942Z,-1.95
2023-12-04T19:27:19.617Z,-1.92
2023-12-04T19:30:21.264Z,-1.93
2023-12-04T19:33:28.482Z,-2.04
2023-12-04T19:36:32.359Z,-1.94
2023-12-04T19:39:34.011Z,-1.95
2023-12-04T19:42:35.682Z,-1.95
2023-12-04T19:45:37.320Z,-2.00
2023-12-04T19:48:39.005Z,-2.06
2023-12-04T19:51:46.976Z,-2.03
2023-12-04T19:54:49.292Z,-2.05
2023-12-04T19:57:50.938Z,-2.05
2023-12-04T20:00:52.623Z,-2.06
2023-12-04T20:03:54.522Z,-2.10
2023-12-04T20:06:56.359Z,-2.20
2023-12-04T20:09:58.911Z,-2.23
2023-12-04T20:13:00.405Z,-2.28
2023-12-04T20:16:08.694Z,-2.44
2023-12-04T20:19:10.426Z,-2.26
2023-12-04T20:22:14.533Z,-2.27
2023-12-04T20:25:16.203Z,-2.22
2023-12-04T20:28:20.058Z,-2.21
2023-12-04T20:31:21.665Z,-2.33
2023-12-04T20:34:23.438Z,-2.26
2023-12-04T20:37:25.279Z,-2.22
2023-12-04T20:40:47.324Z,-2.14
2023-12-04T20:43:48.998Z,-2.18
2023-12-04T20:46:53.252Z,-2.19
2023-12-04T20:49:54.912Z,-2.20
2023-12-04T20:52:56.548Z,-2.21
2023-12-04T20:55:58.258Z,-2.31
2023-12-04T20:59:00.079Z,-2.22
2023-12-04T21:02:03.364Z,-2.26
2023-12-04T21:05:05.731Z,-2.28
2023-12-04T21:08:07.775Z,-2.21
2023-12-04T21:11:10.948Z,-2.23
2023-12-04T21:14:12.595Z,-2.20
2023-12-04T21:17:14.242Z,-2.24
2023-12-04T21:20:16.014Z,-2.26
2023-12-04T21:23:17.508Z,-2.24
2023-12-04T21:26:19.142Z,-2.39
2023-12-04T21:29:20.790Z,-2.29
2023-12-04T21:32:22.424Z,-2.38
2023-12-04T21:35:24.066Z,-2.38
2023-12-04T21:38:25.749Z,-2.36
2023-12-04T21:41:27.518Z,-2.37
2023-12-04T21:44:29.110Z,-2.37
2023-12-04T21:47:30.914Z,-2.37
2023-12-04T21:50:32.597Z,-2.34
2023-12-04T21:53:35.750Z,-2.42
2023-12-04T21:56:37.667Z,-2.41
2023-12-04T21:59:39.232Z,-2.34
2023-12-04T22:02:43.137Z,-2.34
2023-12-04T22:05:45.852Z,-2.37
2023-12-04T22:08:47.457Z,-2.31
2023-12-04T22:11:49.074Z,-2.32
2023-12-04T22:14:50.670Z,-2.32
2023-12-04T22:17:55.272Z,-2.31
2023-12-04T22:20:57.013Z,-2.29
2023-12-04T22:23:58.971Z,-2.27
2023-12-04T22:27:00.548Z,-2.28
2023-12-04T22:30:02.164Z,-2.32
2023-12-04T22:33:03.817Z,-2.27
2023-12-04T22:36:06.553Z,-2.27
2023-12-04T22:39:08.355Z,-2.35
2023-12-04T22:42:09.908Z,-2.31
2023-12-04T22:45:16.326Z,-2.29
2023-12-04T22:48:18.131Z,-2.37
2023-12-04T22:51:21.065Z,-2.33
2023-12-04T22:54:22.878Z,-2.39
2023-12-04T22:57:24.542Z,-2.30
2023-12-04T23:00:26.702Z,-2.33
2023-12-04T23:03:28.590Z,-2.23
2023-12-04T23:06:30.227Z,-2.23
2023-12-04T23:09:31.969Z,-2.20
2023-12-04T23:12:33.939Z,-2.23
2023-12-04T23:15:35.603Z,-2.17
2023-12-04T23:18:37.492Z,-2.15
2023-12-04T23:21:39.531Z,-2.11
2023-12-04T23:24:41.161Z,-2.10
2023-12-04T23:27:42.848Z,-2.06
